Time;durP1;ratioP1;P1;durP2;ratioP2;P2;SDS_P1;SDS_P2;PMS_P1;PMS_P2;Temp;Humidity;BMP_temperature;BMP_pressure;BME280_temperature;BME280_humidity;BME280_pressure;Samples;Min_cycle;Max_cycle;Signal;HPM_P1;HPM_P2
2021/03/21 00:00:17;;;;;;;11.47;6.47;;;-0.70;90.60;;;;;;5031216;28;20757;-73
2021/03/21 00:02:43;;;;;;;15.07;6.60;;;-0.70;90.60;;;;;;5028154;28;20199;-73
2021/03/21 00:05:11;;;;;;;11.87;6.20;;;-0.70;90.80;;;;;;5016820;28;20277;-72
2021/03/21 00:07:37;;;;;;;13.17;6.13;;;-0.60;90.90;;;;;;5020406;28;20294;-71
2021/03/21 00:10:06;;;;;;;12.50;6.73;;;-0.60;90.90;;;;;;5020634;28;20230;-71
2021/03/21 00:12:32;;;;;;;12.87;7.03;;;-0.60;91.00;;;;;;5021694;28;20921;-71
2021/03/21 00:14:59;;;;;;;13.43;6.63;;;-0.60;91.10;;;;;;5024442;28;20250;-71
2021/03/21 00:17:26;;;;;;;13.23;6.97;;;-0.60;91.20;;;;;;5016698;28;20207;-71
2021/03/21 00:19:52;;;;;;;11.03;6.80;;;-0.60;91.30;;;;;;5023673;28;20210;-70
2021/03/21 00:22:19;;;;;;;11.47;5.80;;;-0.60;91.30;;;;;;5031330;28;20662;-71
2021/03/21 00:24:45;;;;;;;10.53;6.47;;;-0.50;91.40;;;;;;5031375;28;21032;-71
2021/03/21 00:27:12;;;;;;;12.97;7.23;;;-0.50;91.40;;;;;;5023764;28;20556;-70
2021/03/21 00:29:40;;;;;;;12.10;6.70;;;-0.50;91.40;;;;;;5026541;28;20569;-71
2021/03/21 00:32:07;;;;;;;14.57;7.20;;;-0.50;91.50;;;;;;5018992;28;20208;-70
2021/03/21 00:34:33;;;;;;;13.37;6.07;;;-0.50;91.50;;;;;;5023651;28;20202;-69
2021/03/21 00:37:00;;;;;;;13.43;7.20;;;-0.50;91.70;;;;;;5029648;28;20238;-69
2021/03/21 00:39:26;;;;;;;11.87;6.63;;;-0.50;92.00;;;;;;5021956;28;20238;-70
2021/03/21 00:41:52;;;;;;;12.13;6.57;;;-0.50;91.90;;;;;;5018583;28;20728;-70
2021/03/21 00:44:20;;;;;;;12.67;6.13;;;-0.50;92.00;;;;;;5032909;28;20689;-70
2021/03/21 00:46:46;;;;;;;11.93;6.80;;;-0.50;92.00;;;;;;5028719;28;20208;-69
2021/03/21 00:49:12;;;;;;;16.50;6.90;;;-0.60;92.10;;;;;;5022116;28;20241;-71
2021/03/21 00:51:39;;;;;;;17.47;7.73;;;-0.60;92.40;;;;;;5027395;28;20207;-70
2021/03/21 00:54:06;;;;;;;10.03;6.37;;;-0.60;92.40;;;;;;5027928;28;20206;-70
2021/03/21 00:56:34;;;;;;;9.97;6.13;;;-0.70;92.60;;;;;;5027786;28;20213;-70
2021/03/21 00:59:01;;;;;;;10.80;6.30;;;-0.70;92.90;;;;;;5028267;28;20297;-70
2021/03/21 01:01:31;;;;;;;12.90;6.20;;;-0.70;93.00;;;;;;5031943;28;20289;-71
2021/03/21 01:03:57;;;;;;;10.23;5.63;;;-0.70;93.10;;;;;;5026170;28;20210;-69
2021/03/21 01:06:23;;;;;;;12.50;6.27;;;-0.70;93.30;;;;;;5025861;28;20302;-70
2021/03/21 01:08:54;;;;;;;14.07;6.40;;;-0.70;93.50;;;;;;5024559;28;20342;-70
2021/03/21 01:11:24;;;;;;;12.30;6.20;;;-0.70;93.50;;;;;;5027212;28;20710;-71
2021/03/21 01:13:50;;;;;;;14.90;6.30;;;-0.70;93.70;;;;;;5033256;28;20585;-70
2021/03/21 01:16:20;;;;;;;10.37;5.97;;;-0.70;93.80;;;;;;5030973;28;20217;-70
2021/03/21 01:18:49;;;;;;;11.17;5.90;;;-0.70;93.80;;;;;;5027047;28;20275;-70
2021/03/21 01:21:16;;;;;;;13.67;7.27;;;-0.60;93.90;;;;;;5029349;28;20211;-71
2021/03/21 01:23:44;;;;;;;12.00;5.87;;;-0.70;94.00;;;;;;5026951;28;20206;-71
2021/03/21 01:26:11;;;;;;;9.63;5.77;;;-0.70;94.10;;;;;;5021883;28;20568;-69
2021/03/21 01:28:38;;;;;;;11.87;6.30;;;-0.70;94.20;;;;;;5016157;28;20203;-71
2021/03/21 01:31:07;;;;;;;11.30;6.37;;;-0.70;94.40;;;;;;5028477;28;20640;-71
2021/03/21 01:33:34;;;;;;;12.27;6.10;;;-0.70;94.50;;;;;;5023981;28;20210;-72
2021/03/21 01:36:03;;;;;;;11.70;6.17;;;-0.70;94.50;;;;;;5034875;28;20749;-71
2021/03/21 01:38:29;;;;;;;9.73;6.37;;;-0.70;94.70;;;;;;5034851;28;20722;-71
2021/03/21 01:41:01;;;;;;;9.27;6.03;;;-0.70;95.20;;;;;;5028762;28;20207;-72
2021/03/21 01:43:30;;;;;;;13.03;6.33;;;-0.70;94.90;;;;;;5027832;28;20204;-71
2021/03/21 01:45:57;;;;;;;9.93;5.70;;;-0.70;95.10;;;;;;5021767;28;20314;-72
2021/03/21 01:48:35;;;;;;;13.03;6.23;;;-0.70;95.10;;;;;;5020779;28;20649;-72
2021/03/21 01:51:06;;;;;;;14.73;6.67;;;-0.70;95.30;;;;;;5023743;28;20209;-71
2021/03/21 01:53:36;;;;;;;9.50;5.80;;;-0.70;95.20;;;;;;5032635;28;20202;-71
2021/03/21 01:56:03;;;;;;;13.70;6.30;;;-0.70;95.40;;;;;;5019788;28;20295;-72
2021/03/21 01:58:32;;;;;;;12.40;6.27;;;-0.70;95.40;;;;;;5027748;28;20340;-72
2021/03/21 02:01:01;;;;;;;10.57;6.00;;;-0.70;95.40;;;;;;5029920;28;20297;-72
2021/03/21 02:03:28;;;;;;;10.50;6.00;;;-0.70;95.50;;;;;;5022927;28;20301;-72
2021/03/21 02:06:08;;;;;;;10.23;5.87;;;-0.70;95.70;;;;;;5022118;28;20297;-72
2021/03/21 02:09:02;;;;;;;10.63;5.77;;;-0.70;95.80;;;;;;5031422;28;20593;-72
2021/03/21 02:11:38;;;;;;;10.10;5.23;;;-0.80;96.00;;;;;;5023143;28;20207;-72
2021/03/21 02:14:13;;;;;;;9.40;5.57;;;-0.80;96.20;;;;;;5028896;28;20797;-71
2021/03/21 02:16:43;;;;;;;10.00;5.60;;;-0.80;96.20;;;;;;5020168;28;20207;-70
2021/03/21 02:19:35;;;;;;;9.90;5.20;;;-0.70;96.30;;;;;;5030736;28;20266;-72
2021/03/21 02:22:06;;;;;;;12.40;6.07;;;-0.70;96.30;;;;;;5030857;28;20199;-71
2021/03/21 02:25:02;;;;;;;10.87;4.90;;;-0.70;96.60;;;;;;5028833;28;20306;-71
2021/03/21 02:27:49;;;;;;;8.13;4.40;;;-0.70;96.80;;;;;;5018631;28;20209;-72
2021/03/21 02:30:21;;;;;;;11.60;5.47;;;-0.70;96.80;;;;;;5028803;28;20631;-72
2021/03/21 02:32:54;;;;;;;10.43;5.33;;;-0.70;97.10;;;;;;5034104;28;20214;-71
2021/03/21 02:35:26;;;;;;;12.40;6.20;;;-0.60;97.20;;;;;;5025776;28;20209;-71
2021/03/21 02:38:05;;;;;;;7.30;4.60;;;-0.60;97.20;;;;;;5030065;28;20218;-71
2021/03/21 02:40:36;;;;;;;8.17;4.90;;;-0.60;97.30;;;;;;5029902;28;20203;-71
2021/03/21 02:43:09;;;;;;;8.77;4.53;;;-0.60;97.50;;;;;;5030886;28;20298;-71
2021/03/21 02:45:41;;;;;;;8.77;4.97;;;-0.60;97.60;;;;;;5022725;28;20223;-71
2021/03/21 02:48:13;;;;;;;8.70;4.83;;;-0.60;97.70;;;;;;5025650;28;20207;-71
2021/03/21 02:50:43;;;;;;;8.27;4.47;;;-0.50;97.70;;;;;;5030745;28;20203;-71
2021/03/21 02:53:15;;;;;;;7.47;4.73;;;-0.40;97.60;;;;;;5018805;28;20207;-72
2021/03/21 02:55:46;;;;;;;10.23;4.97;;;-0.50;97.50;;;;;;5030803;28;20203;-72
2021/03/21 02:58:17;;;;;;;8.07;4.63;;;-0.50;97.50;;;;;;5029523;28;20818;-73
2021/03/21 03:00:50;;;;;;;6.93;4.37;;;-0.40;97.50;;;;;;5029571;28;20644;-73
2021/03/21 03:03:19;;;;;;;7.47;4.27;;;-0.50;97.60;;;;;;5020865;28;20203;-71
2021/03/21 03:05:49;;;;;;;8.30;4.80;;;-0.50;97.80;;;;;;5024518;28;20242;-73
2021/03/21 03:08:18;;;;;;;10.00;4.60;;;-0.40;98.10;;;;;;5030120;28;20200;-72
2021/03/21 03:10:47;;;;;;;9.00;5.10;;;-0.40;98.20;;;;;;5020690;28;20211;-72
2021/03/21 03:13:20;;;;;;;7.13;4.80;;;-0.40;98.10;;;;;;5034778;28;20215;-71
2021/03/21 03:15:49;;;;;;;7.80;4.70;;;-0.40;98.20;;;;;;5035347;28;20290;-71
2021/03/21 03:18:36;;;;;;;8.80;4.23;;;-0.40;98.30;;;;;;5025143;28;20211;-71
2021/03/21 03:21:10;;;;;;;8.23;4.63;;;-0.40;98.50;;;;;;5030471;28;20341;-71
2021/03/21 03:23:43;;;;;;;8.57;4.37;;;-0.40;98.40;;;;;;5039717;28;20345;-72
2021/03/21 03:26:18;;;;;;;7.97;4.37;;;-0.40;98.50;;;;;;5034830;28;20314;-71
2021/03/21 03:28:50;;;;;;;10.13;4.80;;;-0.30;98.80;;;;;;5032718;28;20222;-72
2021/03/21 03:31:22;;;;;;;8.37;4.57;;;-0.30;98.80;;;;;;5027289;28;20203;-71
2021/03/21 03:33:49;;;;;;;7.80;4.57;;;-0.30;98.80;;;;;;5034158;28;20349;-72
2021/03/21 03:36:17;;;;;;;6.63;4.47;;;-0.30;98.90;;;;;;5021730;28;20238;-72
2021/03/21 03:38:46;;;;;;;9.87;4.63;;;-0.30;99.10;;;;;;5032850;28;20704;-72
2021/03/21 03:41:21;;;;;;;10.13;4.67;;;-0.30;99.20;;;;;;5021040;28;20218;-71
2021/03/21 03:43:57;;;;;;;12.93;5.00;;;-0.30;99.40;;;;;;5029950;28;20256;-71
2021/03/21 03:46:33;;;;;;;5.23;4.07;;;-0.30;99.20;;;;;;5021712;28;20222;-73
2021/03/21 03:49:09;;;;;;;6.57;4.13;;;-0.30;99.20;;;;;;5016855;28;20221;-71
2021/03/21 03:51:45;;;;;;;6.97;4.33;;;-0.20;99.40;;;;;;5030314;28;20301;-71
2021/03/21 03:54:25;;;;;;;6.67;3.80;;;-0.20;99.50;;;;;;5027922;28;20198;-72
2021/03/21 03:56:56;;;;;;;8.90;5.03;;;-0.20;99.70;;;;;;5026937;28;20214;-72
2021/03/21 03:59:33;;;;;;;8.63;4.57;;;-0.20;99.50;;;;;;5028125;28;20293;-72
2021/03/21 04:02:07;;;;;;;8.23;4.73;;;-0.20;99.60;;;;;;5024414;28;20213;-72
2021/03/21 04:04:43;;;;;;;10.13;5.57;;;-0.20;99.60;;;;;;5023461;28;20641;-71
2021/03/21 04:07:18;;;;;;;7.47;4.60;;;-0.20;99.80;;;;;;5027634;28;20249;-72
2021/03/21 04:09:52;;;;;;;8.10;4.17;;;-0.20;99.90;;;;;;5020079;28;20290;-72
2021/03/21 04:12:25;;;;;;;7.07;4.63;;;-0.10;99.90;;;;;;5020695;28;20232;-71
2021/03/21 04:14:58;;;;;;;8.83;4.87;;;-0.10;99.90;;;;;;5029511;28;20230;-72
2021/03/21 04:17:33;;;;;;;8.97;4.57;;;-0.10;99.90;;;;;;5030556;28;20236;-71
2021/03/21 04:20:05;;;;;;;7.97;4.40;;;-0.10;99.90;;;;;;5029576;28;20670;-72
2021/03/21 04:22:36;;;;;;;6.37;3.63;;;-0.10;99.90;;;;;;5030021;28;20213;-72
2021/03/21 04:25:08;;;;;;;9.87;4.10;;;-0.10;99.90;;;;;;5031055;28;20224;-71
2021/03/21 04:27:39;;;;;;;8.93;4.47;;;-0.10;99.90;;;;;;5029680;28;20195;-72
2021/03/21 04:30:10;;;;;;;5.87;3.67;;;-0.10;99.90;;;;;;5034336;28;20203;-72
2021/03/21 04:32:42;;;;;;;7.40;4.53;;;-0.10;99.90;;;;;;5026828;28;20571;-72
2021/03/21 04:35:13;;;;;;;6.60;4.50;;;0.00;99.90;;;;;;5030809;28;20233;-72
2021/03/21 04:37:43;;;;;;;8.30;4.43;;;0.00;99.90;;;;;;5031273;28;20271;-72
2021/03/21 04:40:13;;;;;;;5.33;3.90;;;0.00;99.90;;;;;;5027226;28;20302;-72
2021/03/21 04:42:43;;;;;;;7.73;4.20;;;0.00;99.90;;;;;;5031696;28;20290;-72
2021/03/21 04:45:13;;;;;;;6.97;4.20;;;0.00;99.90;;;;;;5031697;28;20786;-73
2021/03/21 04:47:48;;;;;;;8.43;4.17;;;0.00;99.90;;;;;;5034840;28;20217;-73
2021/03/21 04:50:17;;;;;;;5.90;4.20;;;0.10;99.90;;;;;;5034767;28;20221;-72
2021/03/21 04:52:48;;;;;;;7.17;4.50;;;0.00;99.80;;;;;;5032756;28;20207;-71
2021/03/21 04:55:18;;;;;;;5.83;3.80;;;0.10;99.80;;;;;;5035862;28;20210;-72
2021/03/21 04:57:49;;;;;;;9.57;4.13;;;0.10;99.80;;;;;;5024480;28;20597;-72
2021/03/21 05:00:22;;;;;;;9.60;4.97;;;0.10;99.90;;;;;;5031324;28;20201;-71
2021/03/21 05:02:53;;;;;;;7.90;4.80;;;0.00;99.80;;;;;;5034946;28;20673;-71
2021/03/21 05:05:27;;;;;;;6.40;4.40;;;0.10;99.90;;;;;;5033818;28;20274;-72
2021/03/21 05:07:57;;;;;;;8.33;4.90;;;0.10;99.90;;;;;;5032888;28;20202;-71
2021/03/21 05:10:29;;;;;;;8.03;4.57;;;0.10;99.70;;;;;;5034486;28;20206;-73
2021/03/21 05:13:01;;;;;;;6.07;4.30;;;0.10;99.70;;;;;;5034651;28;20202;-72
2021/03/21 05:15:31;;;;;;;5.67;3.97;;;0.20;99.70;;;;;;5036133;28;20195;-71
2021/03/21 05:18:12;;;;;;;7.97;4.00;;;0.20;99.90;;;;;;5030325;28;20254;-71
2021/03/21 05:20:47;;;;;;;8.20;3.90;;;0.20;99.90;;;;;;5028387;28;20567;-72
2021/03/21 05:23:27;;;;;;;7.80;4.03;;;0.20;99.90;;;;;;5024278;28;20672;-71
2021/03/21 05:25:56;;;;;;;10.43;4.57;;;0.20;99.70;;;;;;5020561;28;20769;-71
2021/03/21 05:28:46;;;;;;;8.30;4.80;;;0.20;99.50;;;;;;5029395;28;20576;-72
2021/03/21 05:31:13;;;;;;;6.77;3.90;;;0.10;99.40;;;;;;5031742;28;20202;-71
2021/03/21 05:33:41;;;;;;;6.03;3.90;;;0.20;99.50;;;;;;5031307;28;20202;-72
2021/03/21 05:36:13;;;;;;;6.67;4.00;;;0.20;99.60;;;;;;5035226;28;20230;-71
2021/03/21 05:38:45;;;;;;;5.70;4.20;;;0.20;99.60;;;;;;5025632;28;20227;-72
2021/03/21 05:41:45;;;;;;;11.07;4.30;;;0.20;99.40;;;;;;5025409;28;20714;-71
2021/03/21 05:44:39;;;;;;;10.70;4.90;;;0.30;99.20;;;;;;5022607;28;20246;-71
2021/03/21 05:47:34;;;;;;;7.17;4.50;;;0.20;98.70;;;;;;4996056;28;20218;-72
2021/03/21 05:50:28;;;;;;;6.53;4.00;;;0.30;98.80;;;;;;5028854;28;20282;-71
2021/03/21 05:53:30;;;;;;;11.17;5.07;;;0.30;98.50;;;;;;5023107;28;20199;-72
2021/03/21 05:56:12;;;;;;;9.27;4.37;;;0.40;97.90;;;;;;5023046;28;20628;-72
2021/03/21 05:59:13;;;;;;;7.07;4.30;;;0.30;97.50;;;;;;5029868;28;20293;-70
2021/03/21 06:02:08;;;;;;;5.37;4.17;;;0.30;97.40;;;;;;5018472;28;20735;-70
2021/03/21 06:05:07;;;;;;;6.93;4.30;;;0.30;97.40;;;;;;5011059;28;20239;-70
2021/03/21 06:08:18;;;;;;;8.00;4.23;;;0.30;97.30;;;;;;5022495;28;20743;-71
2021/03/21 06:11:15;;;;;;;8.00;4.73;;;0.30;97.60;;;;;;5009505;28;20289;-70
2021/03/21 06:13:57;;;;;;;10.83;4.17;;;0.30;97.60;;;;;;5029581;28;20230;-70
2021/03/21 06:16:40;;;;;;;6.37;4.20;;;0.30;97.60;;;;;;5033368;28;20266;-69
2021/03/21 06:19:27;;;;;;;8.63;4.37;;;0.30;97.70;;;;;;5031868;28;20218;-70
2021/03/21 06:22:31;;;;;;;7.73;4.37;;;0.30;97.50;;;;;;5023424;28;20222;-71
2021/03/21 06:25:23;;;;;;;8.80;4.33;;;0.40;97.60;;;;;;5024768;28;20238;-70
2021/03/21 06:28:17;;;;;;;7.07;4.63;;;0.40;97.50;;;;;;5025747;28;20214;-73
2021/03/21 06:31:11;;;;;;;7.57;4.43;;;0.50;96.80;;;;;;5030422;28;20233;-71
2021/03/21 06:33:47;;;;;;;11.30;4.50;;;0.50;97.10;;;;;;5027372;28;20209;-71
2021/03/21 06:36:25;;;;;;;10.03;4.77;;;0.50;97.30;;;;;;5017399;28;20207;-70
2021/03/21 06:39:49;;;;;;;9.43;4.97;;;0.50;96.90;;;;;;5025727;28;20206;-76
2021/03/21 06:43:00;;;;;;;7.73;4.97;;;0.60;97.20;;;;;;5011224;28;20285;-73
2021/03/21 06:46:03;;;;;;;8.20;4.73;;;0.60;97.30;;;;;;4991195;28;20334;-76
2021/03/21 06:49:08;;;;;;;7.80;4.90;;;0.60;97.20;;;;;;5010086;28;20675;-76
2021/03/21 06:51:46;;;;;;;10.67;5.63;;;0.70;97.50;;;;;;5030120;28;20209;-75
2021/03/21 06:54:34;;;;;;;11.37;5.60;;;0.70;97.90;;;;;;5034482;28;20286;-75
2021/03/21 06:57:35;;;;;;;10.33;5.70;;;0.70;97.90;;;;;;5032939;28;20639;-76
2021/03/21 07:00:38;;;;;;;8.03;5.50;;;0.80;98.20;;;;;;5030738;28;20263;-75
2021/03/21 07:03:43;;;;;;;8.07;5.43;;;0.80;98.60;;;;;;5011153;28;20215;-74
2021/03/21 07:06:48;;;;;;;8.43;5.03;;;0.90;99.00;;;;;;5033964;28;20238;-75
2021/03/21 07:10:08;;;;;;;13.20;6.37;;;0.90;98.80;;;;;;5032071;28;20715;-75
2021/03/21 07:13:28;;;;;;;10.67;5.60;;;0.90;99.20;;;;;;5018939;28;20276;-76
2021/03/21 07:16:40;;;;;;;9.83;5.47;;;0.90;99.90;;;;;;5028715;28;20278;-76
2021/03/21 07:19:43;;;;;;;10.00;5.87;;;0.80;99.90;;;;;;5014409;28;20301;-75
2021/03/21 07:22:39;;;;;;;8.97;5.70;;;0.80;99.90;;;;;;5026452;28;20659;-76
2021/03/21 07:25:47;;;;;;;11.87;5.83;;;0.80;99.90;;;;;;5029180;28;20261;-77
2021/03/21 07:28:33;;;;;;;8.60;5.00;;;1.00;99.90;;;;;;5012124;28;20485;-70
2021/03/21 07:31:11;;;;;;;9.57;5.90;;;1.00;99.90;;;;;;5017004;28;20210;-73
2021/03/21 07:33:56;;;;;;;9.33;6.03;;;1.00;99.90;;;;;;5029543;28;21082;-72
2021/03/21 07:36:26;;;;;;;10.23;5.67;;;1.00;99.90;;;;;;5022920;28;20190;-72
2021/03/21 07:39:08;;;;;;;10.83;6.30;;;1.00;99.90;;;;;;5030465;28;20256;-72
2021/03/21 07:41:49;;;;;;;11.13;6.80;;;1.00;99.90;;;;;;5032262;28;20328;-72
2021/03/21 07:44:26;;;;;;;11.20;6.40;;;1.00;99.90;;;;;;5021752;28;20538;-72
2021/03/21 07:47:26;;;;;;;10.07;6.53;;;1.00;99.90;;;;;;5029289;28;20227;-72
2021/03/21 07:50:10;;;;;;;11.63;6.63;;;1.00;99.90;;;;;;5027971;28;20281;-74
2021/03/21 07:52:52;;;;;;;9.77;5.97;;;1.00;99.90;;;;;;5024010;28;20206;-69
2021/03/21 07:55:29;;;;;;;9.10;6.90;;;0.90;99.90;;;;;;5025306;28;20238;-73
2021/03/21 07:58:09;;;;;;;9.53;6.37;;;0.90;99.90;;;;;;5028922;28;20261;-69
2021/03/21 08:00:36;;;;;;;11.70;6.73;;;0.90;99.90;;;;;;5032423;28;20210;-73
2021/03/21 08:03:22;;;;;;;13.43;8.20;;;0.90;99.90;;;;;;5025882;28;20206;-74
2021/03/21 08:05:52;;;;;;;11.43;7.43;;;0.90;99.90;;;;;;5025715;28;20269;-73
2021/03/21 08:08:23;;;;;;;11.93;7.63;;;0.80;99.90;;;;;;5028756;28;20214;-72
2021/03/21 08:10:56;;;;;;;12.47;7.13;;;0.90;99.90;;;;;;5019869;28;20540;-73
2021/03/21 08:13:31;;;;;;;12.47;7.80;;;0.90;99.90;;;;;;5025353;28;20234;-71
2021/03/21 08:15:58;;;;;;;13.13;7.37;;;0.90;99.90;;;;;;5023416;28;20205;-72
2021/03/21 08:18:31;;;;;;;11.30;6.97;;;0.90;99.90;;;;;;5027499;28;20210;-72
2021/03/21 08:21:00;;;;;;;12.90;7.90;;;0.90;99.90;;;;;;5019875;28;20682;-73
2021/03/21 08:23:29;;;;;;;10.93;6.73;;;0.90;99.90;;;;;;5025906;28;20340;-71
2021/03/21 08:26:00;;;;;;;11.67;7.50;;;0.90;99.90;;;;;;5021805;28;20223;-72
2021/03/21 08:28:36;;;;;;;11.03;7.27;;;0.90;99.90;;;;;;5020418;28;20199;-71
2021/03/21 08:31:04;;;;;;;14.20;8.23;;;0.90;99.90;;;;;;5029509;28;20232;-75
2021/03/21 08:33:33;;;;;;;10.63;7.60;;;0.90;99.90;;;;;;5021768;28;20207;-71
2021/03/21 08:36:25;;;;;;;11.40;7.53;;;0.90;99.90;;;;;;5027755;28;20290;-72
2021/03/21 08:39:00;;;;;;;12.17;7.80;;;0.80;99.90;;;;;;5014842;28;20227;-71
2021/03/21 08:41:30;;;;;;;12.50;8.30;;;0.80;99.90;;;;;;5016666;28;20219;-72
2021/03/21 08:44:00;;;;;;;13.63;8.23;;;0.80;99.90;;;;;;5023537;28;20671;-73
2021/03/21 08:46:28;;;;;;;13.50;7.83;;;0.90;99.90;;;;;;5026424;28;20408;-72
2021/03/21 08:49:05;;;;;;;12.13;7.97;;;0.80;99.90;;;;;;5021863;28;20203;-68
2021/03/21 08:51:40;;;;;;;13.07;8.00;;;0.90;99.90;;;;;;5018203;28;20206;-73
2021/03/21 08:54:20;;;;;;;12.03;7.60;;;1.00;99.90;;;;;;5032171;28;20210;-72
2021/03/21 08:56:59;;;;;;;13.10;8.53;;;1.00;99.90;;;;;;5025010;28;20210;-72
2021/03/21 08:59:35;;;;;;;13.67;8.73;;;1.00;99.90;;;;;;5029985;28;20224;-71
2021/03/21 09:02:09;;;;;;;12.20;8.43;;;0.90;99.90;;;;;;5034136;28;20210;-72
2021/03/21 09:04:38;;;;;;;12.53;8.73;;;1.00;99.90;;;;;;5028665;28;20329;-71
2021/03/21 09:07:24;;;;;;;14.13;9.27;;;1.00;99.90;;;;;;5031343;28;20226;-73
2021/03/21 09:10:18;;;;;;;14.00;10.20;;;1.00;99.90;;;;;;5022678;28;20218;-73
2021/03/21 09:12:46;;;;;;;11.83;9.07;;;1.10;99.90;;;;;;5030601;28;20214;-74
2021/03/21 09:15:25;;;;;;;14.73;9.63;;;1.00;99.90;;;;;;5031445;28;20218;-73
2021/03/21 09:18:33;;;;;;;14.53;9.13;;;1.10;99.90;;;;;;5028642;28;20628;-73
2021/03/21 09:21:21;;;;;;;13.70;9.07;;;1.10;99.90;;;;;;5031229;28;20238;-73
2021/03/21 09:23:50;;;;;;;13.37;9.27;;;1.20;99.90;;;;;;5029016;28;20224;-73
2021/03/21 09:26:44;;;;;;;14.60;8.77;;;1.20;99.90;;;;;;5032554;28;20229;-73
2021/03/21 09:29:32;;;;;;;14.90;8.93;;;1.20;99.90;;;;;;4989335;28;20210;-71
2021/03/21 09:32:03;;;;;;;14.20;9.80;;;1.30;99.90;;;;;;5030873;28;20252;-73
2021/03/21 09:34:48;;;;;;;14.50;8.83;;;1.30;99.90;;;;;;5032949;28;20565;-74
2021/03/21 09:37:19;;;;;;;15.27;8.67;;;1.40;99.90;;;;;;5028826;28;20839;-75
2021/03/21 09:39:55;;;;;;;13.40;8.50;;;1.40;99.90;;;;;;5031685;28;20205;-73
2021/03/21 09:42:23;;;;;;;14.70;8.87;;;1.50;99.90;;;;;;5028080;28;20297;-73
2021/03/21 09:44:51;;;;;;;12.23;9.00;;;1.60;99.90;;;;;;5023533;28;20207;-72
2021/03/21 09:47:34;;;;;;;15.43;9.40;;;1.60;99.90;;;;;;5029813;28;20211;-72
2021/03/21 09:50:20;;;;;;;12.50;8.67;;;1.60;99.90;;;;;;5021787;28;20842;-73
2021/03/21 09:53:01;;;;;;;12.80;8.53;;;1.60;99.90;;;;;;5034094;28;20285;-76
2021/03/21 09:55:39;;;;;;;12.70;9.23;;;1.70;99.90;;;;;;5031281;28;20259;-73
2021/03/21 09:58:26;;;;;;;13.37;9.27;;;1.70;99.90;;;;;;5030760;28;20210;-73
2021/03/21 10:00:58;;;;;;;14.37;9.63;;;1.80;99.90;;;;;;5034276;28;20198;-73
2021/03/21 10:03:31;;;;;;;16.20;9.80;;;1.80;99.90;;;;;;5021730;28;20206;-74
2021/03/21 10:06:04;;;;;;;16.13;10.27;;;1.90;99.90;;;;;;5032538;28;20245;-72
2021/03/21 10:08:58;;;;;;;13.37;9.43;;;1.90;99.90;;;;;;5031638;28;20214;-72
2021/03/21 10:11:30;;;;;;;15.47;10.17;;;1.90;99.90;;;;;;5012195;28;20228;-75
2021/03/21 10:13:59;;;;;;;17.13;9.77;;;1.90;99.90;;;;;;5025896;28;20239;-72
2021/03/21 10:16:34;;;;;;;12.87;9.13;;;2.00;99.90;;;;;;5025708;28;20242;-72
2021/03/21 10:19:02;;;;;;;14.00;10.20;;;2.00;99.90;;;;;;5027170;28;20207;-71
2021/03/21 10:21:40;;;;;;;14.73;10.23;;;2.10;99.90;;;;;;5025656;28;20686;-73
2021/03/21 10:24:31;;;;;;;15.63;10.10;;;2.00;99.90;;;;;;5027005;28;20421;-77
2021/03/21 10:27:39;;;;;;;14.03;10.40;;;2.00;99.90;;;;;;5031779;28;20219;-76
2021/03/21 10:30:16;;;;;;;12.73;9.20;;;2.00;99.90;;;;;;5025323;28;20293;-75
2021/03/21 10:32:46;;;;;;;13.30;8.80;;;2.00;99.90;;;;;;5018480;28;20213;-75
2021/03/21 10:36:03;;;;;;;15.07;10.87;;;1.90;99.90;;;;;;5024411;28;20293;-75
2021/03/21 10:38:52;;;;;;;14.27;9.43;;;1.90;99.90;;;;;;4953136;29;20225;-75
2021/03/21 10:41:53;;;;;;;15.17;10.10;;;1.90;99.90;;;;;;4954255;28;20253;-75
2021/03/21 10:44:22;;;;;;;14.10;9.60;;;1.90;99.90;;;;;;5012342;28;20595;-74
2021/03/21 10:46:52;;;;;;;15.83;9.93;;;1.90;99.90;;;;;;5022361;28;20233;-76
2021/03/21 10:49:45;;;;;;;14.63;10.43;;;1.80;99.90;;;;;;5021908;28;20609;-74
2021/03/21 10:52:24;;;;;;;14.33;10.40;;;1.90;99.90;;;;;;5023289;28;20264;-68
2021/03/21 10:55:21;;;;;;;13.90;10.50;;;1.90;99.90;;;;;;5024572;28;20214;-71
2021/03/21 10:57:48;;;;;;;14.47;9.83;;;1.90;99.90;;;;;;5021957;28;20221;-72
2021/03/21 11:00:19;;;;;;;14.70;9.83;;;2.10;99.90;;;;;;5021992;28;20294;-71
2021/03/21 11:02:49;;;;;;;15.23;9.60;;;2.10;99.90;;;;;;5026812;28;20241;-71
2021/03/21 11:05:30;;;;;;;13.50;9.80;;;2.10;99.90;;;;;;5027031;28;20593;-73
2021/03/21 11:08:06;;;;;;;16.00;10.10;;;2.20;99.90;;;;;;5024212;28;20714;-72
2021/03/21 11:10:34;;;;;;;15.30;10.80;;;2.20;99.90;;;;;;5031652;28;20210;-71
2021/03/21 11:13:01;;;;;;;15.30;10.20;;;2.30;99.90;;;;;;5033607;28;20210;-72
2021/03/21 11:15:35;;;;;;;15.90;10.97;;;2.30;99.90;;;;;;5030903;28;20218;-73
2021/03/21 11:18:14;;;;;;;14.47;10.43;;;2.30;99.90;;;;;;5027991;28;20660;-72
2021/03/21 11:20:41;;;;;;;18.63;10.93;;;2.30;99.90;;;;;;5018190;28;20210;-72
2021/03/21 11:23:12;;;;;;;14.33;10.13;;;2.40;99.90;;;;;;5030444;28;20207;-73
2021/03/21 11:25:42;;;;;;;15.97;10.60;;;2.40;99.90;;;;;;5029524;28;20739;-72
2021/03/21 11:28:22;;;;;;;14.67;10.60;;;2.30;99.90;;;;;;5029259;28;20249;-73
2021/03/21 11:30:51;;;;;;;16.77;10.90;;;2.40;99.90;;;;;;5024329;28;20270;-72
2021/03/21 11:33:25;;;;;;;17.77;11.77;;;2.40;99.90;;;;;;5021770;28;20202;-74
2021/03/21 11:36:14;;;;;;;14.63;10.23;;;2.50;99.90;;;;;;5028006;28;20293;-72
2021/03/21 11:38:42;;;;;;;13.90;10.67;;;2.50;99.90;;;;;;5031977;28;20285;-72
2021/03/21 11:41:30;;;;;;;15.30;11.07;;;2.50;99.90;;;;;;5018321;28;20298;-71
2021/03/21 11:44:16;;;;;;;14.43;10.27;;;2.60;99.90;;;;;;5028731;28;20206;-71
2021/03/21 11:46:43;;;;;;;15.60;10.63;;;2.70;99.90;;;;;;5025448;28;20214;-71
2021/03/21 11:49:09;;;;;;;14.03;10.63;;;2.70;99.90;;;;;;5018808;28;20289;-71
2021/03/21 11:51:38;;;;;;;17.57;10.53;;;2.80;99.90;;;;;;5032947;28;20559;-72
2021/03/21 11:54:06;;;;;;;16.17;11.00;;;2.90;99.90;;;;;;5029098;28;20221;-71
2021/03/21 11:56:40;;;;;;;15.07;10.83;;;2.90;99.90;;;;;;5028407;28;20648;-72
2021/03/21 11:59:16;;;;;;;16.60;10.13;;;2.90;99.90;;;;;;5029949;28;20729;-71
2021/03/21 12:01:47;;;;;;;18.97;11.70;;;3.00;99.90;;;;;;5020983;28;20336;-72
2021/03/21 12:04:22;;;;;;;14.83;10.93;;;3.00;99.90;;;;;;5017941;28;20200;-71
2021/03/21 12:06:52;;;;;;;17.20;11.20;;;3.00;99.90;;;;;;5024673;28;20274;-71
2021/03/21 12:09:24;;;;;;;13.40;10.60;;;3.00;99.90;;;;;;5024483;28;20689;-71
2021/03/21 12:11:51;;;;;;;13.23;10.07;;;3.10;99.90;;;;;;5023490;28;20218;-73
2021/03/21 12:14:24;;;;;;;14.93;11.30;;;3.10;99.90;;;;;;5026394;28;20330;-72
2021/03/21 12:16:51;;;;;;;17.27;12.33;;;3.10;99.90;;;;;;5022809;28;20290;-70
2021/03/21 12:19:30;;;;;;;12.77;10.60;;;3.20;99.90;;;;;;5028176;28;20233;-72
2021/03/21 12:22:01;;;;;;;15.77;11.73;;;3.10;99.90;;;;;;5030333;28;20310;-75
2021/03/21 12:24:28;;;;;;;12.53;10.47;;;3.20;99.90;;;;;;5028965;28;20289;-71
2021/03/21 12:27:02;;;;;;;13.43;9.97;;;3.10;99.90;;;;;;5024769;28;20763;-73
2021/03/21 12:29:41;;;;;;;12.73;10.20;;;3.20;99.90;;;;;;5026794;28;20207;-71
2021/03/21 12:32:31;;;;;;;14.40;11.13;;;3.10;99.90;;;;;;5026661;28;20265;-72
2021/03/21 12:34:58;;;;;;;13.47;11.03;;;3.10;99.90;;;;;;5026156;28;20207;-72
2021/03/21 12:37:27;;;;;;;16.53;11.10;;;3.10;99.90;;;;;;5025489;28;20207;-72
2021/03/21 12:40:08;;;;;;;15.23;12.20;;;3.10;99.90;;;;;;5022319;28;20290;-72
2021/03/21 12:42:37;;;;;;;16.20;10.57;;;3.10;99.90;;;;;;5032514;28;20336;-71
2021/03/21 12:45:09;;;;;;;15.50;11.23;;;3.10;99.90;;;;;;5035725;28;20546;-73
2021/03/21 12:47:38;;;;;;;14.80;11.00;;;3.10;99.90;;;;;;5030015;28;20196;-75
2021/03/21 12:50:33;;;;;;;14.33;10.17;;;3.10;99.90;;;;;;5026695;28;20214;-73
2021/03/21 12:53:01;;;;;;;15.33;11.90;;;3.10;99.90;;;;;;5029051;28;20223;-72
2021/03/21 12:55:27;;;;;;;13.53;10.97;;;3.10;99.90;;;;;;5031176;28;20754;-72
2021/03/21 12:57:54;;;;;;;15.03;11.00;;;3.10;99.90;;;;;;5032322;28;20215;-73
2021/03/21 13:00:23;;;;;;;16.10;10.93;;;3.10;99.90;;;;;;5026060;28;20572;-73
2021/03/21 13:02:52;;;;;;;14.77;11.37;;;3.10;99.90;;;;;;5030302;28;20296;-72
2021/03/21 13:05:22;;;;;;;15.63;11.13;;;3.20;99.90;;;;;;5028928;28;20605;-73
2021/03/21 13:07:48;;;;;;;15.67;10.70;;;3.20;99.90;;;;;;5029572;28;20680;-79
2021/03/21 13:10:16;;;;;;;12.90;10.60;;;3.20;99.90;;;;;;5030074;28;20211;-72
2021/03/21 13:12:43;;;;;;;15.67;11.17;;;3.10;99.90;;;;;;5029905;28;20674;-74
2021/03/21 13:15:11;;;;;;;14.47;11.00;;;3.10;99.90;;;;;;5033862;28;20706;-73
2021/03/21 13:17:38;;;;;;;15.07;11.00;;;3.10;99.90;;;;;;5020263;28;20724;-77
2021/03/21 13:20:07;;;;;;;14.23;11.60;;;3.00;99.90;;;;;;5031567;28;20207;-75
2021/03/21 13:22:33;;;;;;;14.03;10.97;;;3.00;99.90;;;;;;5035869;28;20722;-77
2021/03/21 13:25:00;;;;;;;16.67;10.70;;;2.90;99.90;;;;;;5032881;28;20256;-76
2021/03/21 13:27:27;;;;;;;14.90;10.90;;;2.90;99.90;;;;;;5034674;28;20226;-78
2021/03/21 13:29:56;;;;;;;15.77;11.07;;;2.90;99.90;;;;;;5037269;28;20294;-78
2021/03/21 13:32:23;;;;;;;14.77;11.10;;;2.90;99.90;;;;;;5035419;28;20250;-77